Time;durP1;ratioP1;P1;durP2;ratioP2;P2;SDS_P1;SDS_P2;PMS_P1;PMS_P2;Temp;Humidity;BMP_temperature;BMP_pressure;BME280_temperature;BME280_humidity;BME280_pressure;Samples;Min_cycle;Max_cycle;Signal;HPM_P1;HPM_P2
2023/04/23 00:01:26;;;;;;;67.95;24.77;;;7.40;99.90;;;;;;5075061;28;20131;-61
2023/04/23 00:03:57;;;;;;;90.28;28.05;;;7.40;99.90;;;;;;5092992;28;20048;-63
2023/04/23 00:06:25;;;;;;;230.00;36.40;;;7.30;99.90;;;;;;5090983;28;20048;-62
2023/04/23 00:08:55;;;;;;;206.05;34.03;;;7.40;99.90;;;;;;5074794;28;20143;-62
2023/04/23 00:11:22;;;;;;;264.55;36.92;;;7.30;99.90;;;;;;5092355;28;20048;-61
2023/04/23 00:13:50;;;;;;;261.02;35.65;;;7.30;99.90;;;;;;5093006;28;20089;-62
2023/04/23 00:16:18;;;;;;;202.85;33.20;;;7.20;99.90;;;;;;5075322;28;20044;-61
2023/04/23 00:18:45;;;;;;;173.27;30.80;;;7.20;99.90;;;;;;5090173;28;20051;-62
2023/04/23 00:21:12;;;;;;;198.85;30.55;;;7.10;99.90;;;;;;5074585;28;20044;-63
2023/04/23 00:23:40;;;;;;;171.02;32.65;;;7.10;99.90;;;;;;5092775;28;20036;-62
2023/04/23 00:26:08;;;;;;;154.15;27.42;;;7.10;99.90;;;;;;5074200;28;20059;-62
2023/04/23 00:28:35;;;;;;;134.93;28.25;;;7.10;99.90;;;;;;5092560;28;20040;-63
2023/04/23 00:31:02;;;;;;;150.35;32.80;;;7.10;99.90;;;;;;5074393;28;20052;-63
2023/04/23 00:33:29;;;;;;;96.07;26.27;;;7.10;99.90;;;;;;5092292;28;20051;-62
2023/04/23 00:35:55;;;;;;;95.25;24.50;;;7.10;99.90;;;;;;5092549;28;20097;-61
2023/04/23 00:38:22;;;;;;;100.82;25.70;;;7.10;99.90;;;;;;5092563;28;20071;-62
2023/04/23 00:40:49;;;;;;;133.60;30.52;;;7.10;99.90;;;;;;5074024;28;20476;-62
2023/04/23 00:43:18;;;;;;;146.38;30.55;;;7.10;99.90;;;;;;5074694;28;20109;-61
2023/04/23 00:45:45;;;;;;;176.23;32.10;;;7.80;99.90;;;;;;5090310;28;20072;-61
2023/04/23 00:48:12;;;;;;;123.78;34.65;;;7.10;99.90;;;;;;5073709;28;20454;-62
2023/04/23 00:50:39;;;;;;;160.45;34.03;;;7.20;99.90;;;;;;5092295;28;20047;-61
2023/04/23 00:53:06;;;;;;;117.47;30.83;;;7.20;99.90;;;;;;5092510;28;20052;-63
2023/04/23 00:55:34;;;;;;;133.10;33.55;;;7.20;99.90;;;;;;5073915;28;20105;-62
2023/04/23 00:58:01;;;;;;;152.63;31.55;;;7.20;99.90;;;;;;5091924;28;20588;-62
2023/04/23 01:00:29;;;;;;;119.28;31.63;;;7.20;99.90;;;;;;5091451;28;20055;-62
2023/04/23 01:02:57;;;;;;;134.07;31.15;;;7.20;99.90;;;;;;5091918;28;20458;-62
2023/04/23 01:05:24;;;;;;;105.40;31.05;;;7.20;99.90;;;;;;5092325;28;20044;-61
2023/04/23 01:07:51;;;;;;;123.43;30.35;;;7.20;99.90;;;;;;5073462;28;20388;-62
2023/04/23 01:10:19;;;;;;;184.60;40.55;;;7.10;99.90;;;;;;5073965;28;20495;-61
2023/04/23 01:12:46;;;;;;;134.52;32.88;;;7.20;99.90;;;;;;5092326;28;20127;-61
2023/04/23 01:15:13;;;;;;;101.57;29.60;;;7.10;99.90;;;;;;5091517;28;20043;-62
2023/04/23 01:17:41;;;;;;;83.53;30.42;;;7.10;99.90;;;;;;5071587;28;20043;-62
2023/04/23 01:20:10;;;;;;;147.20;40.42;;;7.10;99.90;;;;;;5091915;28;20044;-61
2023/04/23 01:22:38;;;;;;;105.15;36.45;;;7.20;99.90;;;;;;5091387;28;20487;-63
2023/04/23 01:25:06;;;;;;;120.55;34.10;;;7.30;99.90;;;;;;5074057;28;20553;-62
2023/04/23 01:27:34;;;;;;;80.88;26.40;;;7.20;99.90;;;;;;5074001;28;20083;-63
2023/04/23 01:30:03;;;;;;;70.45;28.75;;;7.20;99.90;;;;;;5089279;28;20115;-61
2023/04/23 01:32:30;;;;;;;65.20;26.02;;;7.20;99.90;;;;;;5091834;28;20551;-63
2023/04/23 01:34:58;;;;;;;62.58;26.08;;;7.20;99.90;;;;;;5073830;28;20097;-61
2023/04/23 01:37:26;;;;;;;57.97;27.58;;;7.20;99.90;;;;;;5090912;28;20048;-62
2023/04/23 01:39:55;;;;;;;51.63;25.67;;;7.10;99.90;;;;;;5073971;28;20050;-62
2023/04/23 01:42:22;;;;;;;46.58;25.00;;;7.20;99.90;;;;;;5092003;28;20048;-61
2023/04/23 01:44:51;;;;;;;45.08;26.65;;;7.10;99.90;;;;;;5091424;28;20437;-62
2023/04/23 01:47:18;;;;;;;40.30;25.80;;;7.10;99.90;;;;;;5091591;28;20055;-62
2023/04/23 01:49:45;;;;;;;46.92;27.38;;;7.10;99.90;;;;;;5091186;28;20051;-60
2023/04/23 01:52:12;;;;;;;44.15;25.90;;;7.10;99.90;;;;;;5089872;28;20444;-62
2023/04/23 01:54:39;;;;;;;42.55;25.50;;;7.00;99.90;;;;;;5091920;28;20048;-63
2023/04/23 01:57:07;;;;;;;41.30;26.08;;;7.00;99.90;;;;;;5091244;28;20055;-63
2023/04/23 01:59:34;;;;;;;43.45;27.10;;;6.90;99.90;;;;;;5073867;28;20101;-61
2023/04/23 02:02:01;;;;;;;44.33;26.02;;;6.90;99.90;;;;;;5091464;28;20059;-62
2023/04/23 02:04:30;;;;;;;48.00;27.38;;;6.90;99.90;;;;;;5073213;28;20059;-62
2023/04/23 02:06:57;;;;;;;52.05;28.42;;;6.90;99.90;;;;;;5073886;28;20051;-61
2023/04/23 02:09:24;;;;;;;45.97;25.77;;;6.80;99.90;;;;;;5091328;28;20052;-62
2023/04/23 02:11:51;;;;;;;48.78;28.98;;;6.80;99.90;;;;;;5070926;28;20070;-62
2023/04/23 02:14:19;;;;;;;49.72;28.55;;;6.70;99.90;;;;;;5094844;28;20443;-61
2023/04/23 02:16:46;;;;;;;51.03;27.55;;;6.70;99.90;;;;;;5095225;28;20055;-62
2023/04/23 02:19:14;;;;;;;52.00;31.05;;;6.70;99.90;;;;;;5076079;28;20492;-62
2023/04/23 02:21:41;;;;;;;53.53;29.77;;;6.70;99.90;;;;;;5076918;28;20076;-61
2023/04/23 02:24:08;;;;;;;57.13;32.38;;;6.60;99.90;;;;;;5076926;28;20476;-61
2023/04/23 02:26:35;;;;;;;56.47;31.48;;;6.60;99.90;;;;;;5094449;28;20093;-62
2023/04/23 02:29:02;;;;;;;55.13;32.13;;;6.60;99.90;;;;;;5094669;28;20051;-62
2023/04/23 02:31:30;;;;;;;63.22;33.55;;;6.80;99.90;;;;;;5095031;28;20044;-62
2023/04/23 02:33:57;;;;;;;57.30;33.17;;;6.50;99.90;;;;;;5094361;28;20044;-61
2023/04/23 02:36:25;;;;;;;67.25;36.25;;;6.50;99.90;;;;;;5095059;28;20127;-61
2023/04/23 02:38:52;;;;;;;72.35;35.58;;;6.60;99.90;;;;;;5091605;28;20480;-61
2023/04/23 02:41:18;;;;;;;64.70;36.10;;;6.50;99.90;;;;;;5076837;28;20404;-63
2023/04/23 02:43:45;;;;;;;66.28;35.28;;;6.50;99.90;;;;;;5094801;28;20105;-62
2023/04/23 02:46:12;;;;;;;73.43;35.67;;;6.50;99.90;;;;;;5094253;28;20092;-62
2023/04/23 02:48:41;;;;;;;67.68;35.75;;;6.50;99.90;;;;;;5092503;28;20048;-61
2023/04/23 02:51:11;;;;;;;70.15;37.25;;;6.40;99.90;;;;;;5076354;28;20047;-61
2023/04/23 02:53:38;;;;;;;71.72;40.00;;;6.40;99.90;;;;;;5094077;28;20418;-62
2023/04/23 02:56:06;;;;;;;74.95;37.95;;;6.40;99.90;;;;;;5076217;28;20047;-61
2023/04/23 02:58:33;;;;;;;69.32;37.17;;;6.40;99.90;;;;;;5094169;28;20105;-60
2023/04/23 03:01:00;;;;;;;79.85;39.92;;;6.40;99.90;;;;;;5093834;28;20055;-61
2023/04/23 03:03:30;;;;;;;84.22;41.45;;;6.40;99.90;;;;;;5076078;28;20056;-60
2023/04/23 03:06:00;;;;;;;;;;;6.40;99.90;;;;;;5093144;28;20063;-61
2023/04/23 03:08:27;;;;;;;93.50;41.88;;;6.50;99.90;;;;;;5093432;28;19920;-61
2023/04/23 03:10:54;;;;;;;208.70;53.03;;;6.60;99.90;;;;;;5093986;28;20040;-62
2023/04/23 03:13:21;;;;;;;170.25;51.08;;;6.60;99.90;;;;;;5075895;28;20775;-61
2023/04/23 03:15:48;;;;;;;201.60;52.50;;;6.60;99.90;;;;;;5093645;28;20404;-62
2023/04/23 03:18:15;;;;;;;294.80;58.80;;;6.60;99.90;;;;;;5093865;28;20044;-62
2023/04/23 03:20:42;;;;;;;199.88;56.00;;;6.60;99.90;;;;;;5094069;28;20051;-62
2023/04/23 03:23:10;;;;;;;245.23;51.92;;;6.60;99.90;;;;;;5075497;28;20074;-62
2023/04/23 03:25:38;;;;;;;209.27;51.17;;;6.60;99.90;;;;;;5093937;28;20121;-62
2023/04/23 03:28:05;;;;;;;214.93;57.22;;;6.60;99.90;;;;;;5093148;28;20048;-62
2023/04/23 03:30:32;;;;;;;222.32;54.53;;;6.60;99.90;;;;;;5075598;28;20488;-62
2023/04/23 03:33:01;;;;;;;197.00;56.05;;;6.60;99.90;;;;;;5093816;28;20051;-61
2023/04/23 03:35:28;;;;;;;278.83;61.03;;;6.60;99.90;;;;;;5074708;28;20075;-61
2023/04/23 03:37:55;;;;;;;259.17;57.42;;;6.60;99.90;;;;;;5093408;28;20055;-62
2023/04/23 03:40:23;;;;;;;224.95;53.08;;;6.60;99.90;;;;;;5075583;28;20056;-61
2023/04/23 03:42:50;;;;;;;229.45;57.33;;;6.60;99.90;;;;;;5093254;28;20051;-61
2023/04/23 03:45:17;;;;;;;230.57;54.88;;;6.70;99.90;;;;;;5075428;28;20105;-60
2023/04/23 03:47:44;;;;;;;259.30;56.85;;;6.70;99.90;;;;;;5075381;28;20392;-60
2023/04/23 03:50:12;;;;;;;266.73;55.95;;;6.70;99.90;;;;;;5074757;28;20487;-62
2023/04/23 03:52:39;;;;;;;202.10;59.08;;;6.70;99.90;;;;;;5074976;28;20470;-61
2023/04/23 03:55:07;;;;;;;265.40;66.75;;;6.70;99.90;;;;;;5093192;28;20491;-61
2023/04/23 03:57:36;;;;;;;175.90;55.95;;;6.70;99.90;;;;;;5074477;28;20098;-61
2023/04/23 04:00:07;;;;;;;209.65;57.78;;;6.70;99.90;;;;;;5075206;28;20043;-62
2023/04/23 04:02:33;;;;;;;197.88;53.83;;;6.70;99.90;;;;;;5074983;28;20469;-61
2023/04/23 04:05:00;;;;;;;235.52;60.22;;;6.70;99.90;;;;;;5092780;28;20044;-61
2023/04/23 04:07:28;;;;;;;391.63;82.78;;;6.70;99.90;;;;;;5090675;28;20510;-62
2023/04/23 04:09:55;;;;;;;252.88;59.83;;;6.80;99.90;;;;;;5092781;28;20488;-61
2023/04/23 04:12:21;;;;;;;242.65;60.38;;;6.80;99.90;;;;;;5092294;28;20503;-63
2023/04/23 04:14:50;;;;;;;218.50;58.22;;;6.80;99.90;;;;;;5074944;28;20043;-61
2023/04/23 04:17:17;;;;;;;181.10;58.80;;;6.90;99.90;;;;;;5092130;28;20131;-62
2023/04/23 04:19:43;;;;;;;246.00;62.08;;;6.90;99.90;;;;;;5092534;28;20512;-61
2023/04/23 04:22:10;;;;;;;268.65;63.80;;;6.90;99.90;;;;;;5074575;28;20052;-62
2023/04/23 04:24:37;;;;;;;205.25;58.95;;;7.00;99.90;;;;;;5091976;28;20510;-62
2023/04/23 04:27:04;;;;;;;187.18;59.65;;;7.00;99.90;;;;;;5092674;28;20453;-62
2023/04/23 04:29:32;;;;;;;188.93;59.65;;;7.00;99.90;;;;;;5074424;28;20445;-62
2023/04/23 04:32:01;;;;;;;243.10;65.55;;;7.00;99.90;;;;;;5073714;28;20036;-62
2023/04/23 04:34:28;;;;;;;141.77;53.30;;;7.00;99.90;;;;;;5092444;28;20453;-61
2023/04/23 04:36:56;;;;;;;180.32;61.80;;;7.10;99.90;;;;;;5092121;28;20067;-62
2023/04/23 04:39:22;;;;;;;126.90;55.25;;;7.10;99.90;;;;;;5071772;28;20063;-61
2023/04/23 04:41:49;;;;;;;142.77;58.80;;;7.20;99.90;;;;;;5074186;28;20077;-62
2023/04/23 04:44:16;;;;;;;125.70;54.38;;;7.00;99.90;;;;;;5074472;28;20093;-62
2023/04/23 04:46:43;;;;;;;134.13;56.55;;;7.20;99.90;;;;;;5091805;28;20048;-61
2023/04/23 04:49:12;;;;;;;126.03;53.58;;;7.30;99.90;;;;;;5090135;28;20054;-62
2023/04/23 04:51:40;;;;;;;158.85;60.58;;;7.30;99.90;;;;;;5074163;28;20093;-61
2023/04/23 04:54:08;;;;;;;138.27;57.67;;;7.30;99.90;;;;;;5091878;28;20119;-62
2023/04/23 04:56:35;;;;;;;121.75;55.53;;;7.40;99.90;;;;;;5072202;28;20101;-60
2023/04/23 04:59:02;;;;;;;114.53;53.03;;;7.40;99.90;;;;;;5074104;28;20097;-61
2023/04/23 05:01:30;;;;;;;113.07;54.65;;;7.50;99.90;;;;;;5089178;28;20040;-63
2023/04/23 05:03:57;;;;;;;101.05;51.17;;;7.50;99.90;;;;;;5091935;28;20507;-61
2023/04/23 05:06:27;;;;;;;99.18;50.47;;;7.50;99.90;;;;;;5072082;28;20055;-62
2023/04/23 05:08:54;;;;;;;97.03;50.53;;;7.50;99.90;;;;;;5092031;28;20086;-62
2023/04/23 05:11:21;;;;;;;94.05;47.80;;;7.50;99.90;;;;;;5073909;28;20298;-61
2023/04/23 05:13:48;;;;;;;87.88;44.92;;;7.50;99.90;;;;;;5091720;28;20427;-62
2023/04/23 05:16:15;;;;;;;85.68;45.67;;;7.50;99.90;;;;;;5074169;28;20056;-61
2023/04/23 05:18:42;;;;;;;90.30;46.38;;;7.60;99.90;;;;;;5091963;28;20089;-62
2023/04/23 05:21:09;;;;;;;84.68;44.30;;;7.60;99.90;;;;;;5091342;28;20051;-60
2023/04/23 05:23:38;;;;;;;73.43;40.72;;;7.70;99.90;;;;;;5074123;28;20159;-61
2023/04/23 05:26:05;;;;;;;77.60;42.17;;;7.70;99.90;;;;;;5091901;28;20580;-61
2023/04/23 05:28:31;;;;;;;69.47;40.20;;;7.70;99.90;;;;;;5073334;28;20498;-61
2023/04/23 05:30:58;;;;;;;68.73;39.17;;;7.70;99.90;;;;;;5091872;28;20403;-62
2023/04/23 05:33:26;;;;;;;68.68;39.30;;;7.70;99.90;;;;;;5073899;28;20051;-61
2023/04/23 05:35:53;;;;;;;69.28;37.97;;;7.70;99.90;;;;;;5091276;28;20056;-62
2023/04/23 05:38:20;;;;;;;66.55;38.50;;;7.70;99.90;;;;;;5073949;28;20130;-62
2023/04/23 05:40:48;;;;;;;68.53;38.08;;;7.70;99.90;;;;;;5073658;28;20507;-62
2023/04/23 05:43:15;;;;;;;69.68;39.75;;;7.80;99.90;;;;;;5091038;28;20051;-61
2023/04/23 05:45:43;;;;;;;61.25;35.10;;;7.80;99.90;;;;;;5073652;28;20097;-61
2023/04/23 05:48:10;;;;;;;66.07;37.95;;;7.80;99.90;;;;;;5093366;28;20123;-63
2023/04/23 05:50:36;;;;;;;66.15;37.53;;;7.80;99.90;;;;;;5094974;28;20040;-61
2023/04/23 05:53:03;;;;;;;67.97;37.55;;;7.90;99.90;;;;;;5095518;28;20044;-62
2023/04/23 05:55:30;;;;;;;69.25;38.53;;;8.00;99.90;;;;;;5077315;28;20089;-62
2023/04/23 05:57:58;;;;;;;71.03;38.92;;;8.00;99.90;;;;;;5076900;28;20060;-62
2023/04/23 06:00:25;;;;;;;68.15;39.78;;;8.10;99.90;;;;;;5095538;28;20048;-62
2023/04/23 06:02:52;;;;;;;69.05;39.63;;;8.10;99.90;;;;;;5076426;28;20055;-62
2023/04/23 06:05:19;;;;;;;70.00;39.17;;;8.20;99.90;;;;;;5077187;28;20051;-61
2023/04/23 06:07:46;;;;;;;69.03;39.03;;;8.30;99.90;;;;;;5095134;28;20048;-61
2023/04/23 06:10:13;;;;;;;70.68;39.70;;;8.40;99.90;;;;;;5094542;28;20055;-62
2023/04/23 06:12:40;;;;;;;75.35;40.30;;;8.50;99.90;;;;;;5095259;28;20044;-61
2023/04/23 06:15:10;;;;;;;70.38;40.70;;;8.50;99.90;;;;;;5087928;28;20060;-61
2023/04/23 06:17:38;;;;;;;69.85;40.50;;;8.60;99.90;;;;;;5071282;28;20105;-61
2023/04/23 06:20:07;;;;;;;76.07;41.25;;;8.60;99.90;;;;;;5091390;28;20131;-61
2023/04/23 06:22:34;;;;;;;69.78;40.35;;;8.70;99.90;;;;;;5093689;28;20051;-61
2023/04/23 06:25:01;;;;;;;62.40;39.63;;;9.00;99.90;;;;;;5070703;28;20440;-61
2023/04/23 06:27:28;;;;;;;64.63;38.78;;;9.50;99.90;;;;;;5092398;28;20101;-62
2023/04/23 06:29:55;;;;;;;61.42;38.10;;;10.10;99.90;;;;;;5073845;28;20048;-63
2023/04/23 06:32:23;;;;;;;67.05;37.25;;;10.60;99.90;;;;;;5091304;28;20115;-62
2023/04/23 06:34:50;;;;;;;60.85;37.10;;;11.00;99.90;;;;;;5073831;28;20047;-61
2023/04/23 06:37:17;;;;;;;63.75;39.05;;;11.10;99.90;;;;;;5073540;28;20052;-61
2023/04/23 06:39:44;;;;;;;62.00;37.35;;;10.90;99.90;;;;;;5091029;28;20048;-62
2023/04/23 06:42:11;;;;;;;66.75;39.88;;;10.70;99.90;;;;;;5093173;28;20044;-62
2023/04/23 06:44:37;;;;;;;61.20;37.10;;;10.60;99.90;;;;;;5092799;28;20105;-62
2023/04/23 06:47:04;;;;;;;60.67;38.03;;;10.50;99.90;;;;;;5073572;28;20056;-62
2023/04/23 06:49:33;;;;;;;60.58;35.95;;;10.60;99.90;;;;;;5074035;28;20056;-62
2023/04/23 06:52:00;;;;;;;56.10;37.22;;;10.70;99.90;;;;;;5090157;28;20048;-62
2023/04/23 06:54:26;;;;;;;62.17;37.20;;;10.70;99.90;;;;;;5091747;28;20052;-62
2023/04/23 06:56:54;;;;;;;55.10;35.28;;;11.20;99.90;;;;;;5072437;28;20055;-61
2023/04/23 06:59:20;;;;;;;56.58;34.15;;;11.90;99.90;;;;;;5091852;28;20097;-62
2023/04/23 07:01:47;;;;;;;53.45;34.35;;;12.50;99.90;;;;;;5087675;28;20503;-62
2023/04/23 07:04:14;;;;;;;52.83;33.40;;;13.00;99.90;;;;;;5092774;28;20044;-61
2023/04/23 07:06:42;;;;;;;54.85;33.35;;;13.20;99.90;;;;;;5072732;28;20060;-61
2023/04/23 07:09:09;;;;;;;48.35;30.88;;;13.30;99.90;;;;;;5093562;28;20187;-61
2023/04/23 07:11:36;;;;;;;45.90;31.02;;;13.80;99.90;;;;;;5071175;28;20064;-61
2023/04/23 07:14:04;;;;;;;48.67;30.88;;;14.10;99.90;;;;;;5086788;28;20044;-62
2023/04/23 07:16:32;;;;;;;47.42;30.73;;;14.70;99.90;;;;;;5089718;28;20093;-62
2023/04/23 07:19:01;;;;;;;46.45;30.00;;;14.80;99.90;;;;;;5092555;28;20048;-61
2023/04/23 07:21:28;;;;;;;45.42;28.60;;;14.90;99.90;;;;;;5072776;28;20135;-61
2023/04/23 07:23:58;;;;;;;42.85;28.80;;;14.80;99.90;;;;;;5075266;28;20085;-61
2023/04/23 07:26:26;;;;;;;44.75;28.38;;;14.60;99.90;;;;;;5073265;28;20127;-61
2023/04/23 07:28:53;;;;;;;38.88;25.27;;;14.90;99.90;;;;;;5091641;28;20097;-61
2023/04/23 07:31:20;;;;;;;35.55;24.95;;;15.10;99.90;;;;;;5074209;28;20056;-61
2023/04/23 07:33:47;;;;;;;36.17;26.13;;;15.20;99.90;;;;;;5092247;28;20403;-61
2023/04/23 07:36:14;;;;;;;38.53;26.63;;;15.20;99.90;;;;;;5092758;28;20131;-61
2023/04/23 07:38:41;;;;;;;37.17;24.50;;;14.80;99.90;;;;;;5073847;28;20052;-61
2023/04/23 07:41:09;;;;;;;40.42;26.23;;;14.50;99.90;;;;;;5092865;28;20416;-62
2023/04/23 07:43:36;;;;;;;37.28;26.38;;;14.10;99.90;;;;;;5073151;28;20093;-62
2023/04/23 07:46:03;;;;;;;38.95;26.48;;;14.00;99.90;;;;;;5074780;28;20052;-62
2023/04/23 07:48:31;;;;;;;39.65;26.45;;;13.80;99.90;;;;;;5072718;28;20072;-62
2023/04/23 07:50:57;;;;;;;38.22;26.13;;;14.10;99.90;;;;;;5092661;28;20101;-61
2023/04/23 07:53:25;;;;;;;38.85;25.88;;;14.10;99.90;;;;;;5072956;28;20040;-62
2023/04/23 07:55:51;;;;;;;41.65;26.70;;;14.30;99.90;;;;;;5092456;28;20074;-62
2023/04/23 07:58:20;;;;;;;37.67;24.55;;;14.00;99.90;;;;;;5072073;28;20469;-61
2023/04/23 08:00:47;;;;;;;35.55;25.40;;;14.30;99.90;;;;;;5073548;28;20113;-62
2023/04/23 08:03:14;;;;;;;31.40;23.58;;;15.00;99.90;;;;;;5089694;28;20044;-62
2023/04/23 08:05:41;;;;;;;34.95;24.27;;;16.00;99.90;;;;;;5091866;28;20040;-62
2023/04/23 08:08:08;;;;;;;31.42;23.20;;;16.50;99.90;;;;;;5071721;28;20063;-61
2023/04/23 08:10:35;;;;;;;27.27;21.63;;;17.20;99.90;;;;;;5090007;28;20040;-62
2023/04/23 08:13:02;;;;;;;32.92;23.42;;;18.00;99.90;;;;;;5071420;28;20093;-61
2023/04/23 08:15:30;;;;;;;30.33;22.95;;;17.80;99.90;;;;;;5090895;28;20044;-61
2023/04/23 08:17:57;;;;;;;29.95;21.60;;;17.10;99.90;;;;;;5073570;28;20044;-62
2023/04/23 08:20:25;;;;;;;28.88;21.27;;;17.40;99.90;;;;;;5091327;28;20656;-62
2023/04/23 08:22:52;;;;;;;29.13;21.27;;;18.20;99.90;;;;;;5091071;28;20122;-63
2023/04/23 08:25:20;;;;;;;29.67;22.27;;;18.60;99.90;;;;;;5070577;28;20136;-62
2023/04/23 08:27:47;;;;;;;29.88;21.67;;;18.60;99.90;;;;;;5074012;28;20066;-62
2023/04/23 08:30:14;;;;;;;26.33;19.65;;;18.80;99.90;;;;;;5090474;28;20044;-63
2023/04/23 08:32:42;;;;;;;27.05;20.88;;;19.40;99.90;;;;;;5091219;28;20054;-62
2023/04/23 08:35:09;;;;;;;25.52;19.70;;;19.70;99.90;;;;;;5089087;28;20048;-62
2023/04/23 08:37:37;;;;;;;24.02;18.60;;;20.00;99.90;;;;;;5090719;28;20051;-62
2023/04/23 08:40:06;;;;;;;24.25;17.88;;;20.50;99.90;;;;;;5090105;28;20134;-62
2023/04/23 08:42:40;;;;;;;24.98;18.73;;;20.90;99.90;;;;;;5091943;28;20161;-63
2023/04/23 08:45:08;;;;;;;23.85;17.33;;;21.30;99.90;;;;;;5090170;28;20048;-63
2023/04/23 08:47:35;;;;;;;21.13;16.63;;;21.40;99.90;;;;;;5091803;28;20491;-63
2023/04/23 08:50:05;;;;;;;23.60;16.80;;;21.50;99.90;;;;;;5089409;28;20491;-62
2023/04/23 08:52:35;;;;;;;20.35;16.45;;;21.50;99.90;;;;;;5073236;28;20119;-61
2023/04/23 08:55:04;;;;;;;20.15;16.65;;;21.70;99.90;;;;;;5071227;28;20140;-62
2023/04/23 08:57:31;;;;;;;23.27;17.00;;;21.60;99.90;;;;;;5090813;28;20044;-63
2023/04/23 09:00:00;;;;;;;21.80;16.85;;;21.80;99.90;;;;;;5072218;28;20048;-63
2023/04/23 09:02:28;;;;;;;19.77;15.27;;;22.20;99.90;;;;;;5089617;28;20067;-63
2023/04/23 09:04:56;;;;;;;18.95;15.35;;;22.20;99.70;;;;;;5073370;28;20056;-62
2023/04/23 09:07:24;;;;;;;19.08;15.98;;;22.60;99.60;;;;;;5089788;28;20045;-63
2023/04/23 09:09:51;;;;;;;19.42;15.02;;;22.30;99.20;;;;;;5089544;28;20087;-62
2023/04/23 09:12:18;;;;;;;18.80;14.38;;;21.90;98.60;;;;;;5090294;28;20047;-64
2023/04/23 09:14:45;;;;;;;18.15;13.88;;;22.10;99.90;;;;;;5089997;28;20044;-63
2023/04/23 09:17:12;;;;;;;20.05;14.73;;;22.40;99.40;;;;;;5089644;28;20102;-62
2023/04/23 09:19:39;;;;;;;20.15;14.88;;;22.80;98.20;;;;;;5091078;28;20150;-63
2023/04/23 09:22:08;;;;;;;17.48;14.40;;;23.00;97.80;;;;;;5073668;28;20048;-62
2023/04/23 09:24:36;;;;;;;16.10;12.82;;;23.00;97.60;;;;;;5095385;28;20075;-62
2023/04/23 09:27:03;;;;;;;15.00;11.68;;;23.10;97.30;;;;;;5093378;28;20122;-62
2023/04/23 09:29:30;;;;;;;15.27;12.00;;;23.20;97.20;;;;;;5095471;28;20047;-63
2023/04/23 09:32:09;;;;;;;15.77;12.07;;;22.90;96.80;;;;;;5093967;28;20055;-63
2023/04/23 09:34:37;;;;;;;14.90;11.30;;;22.90;96.90;;;;;;5075959;28;20051;-63
2023/04/23 09:37:06;;;;;;;13.63;10.27;;;22.00;97.50;;;;;;5094125;28;20119;-63
2023/04/23 09:39:35;;;;;;;16.20;10.95;;;21.80;97.40;;;;;;5094665;28;20058;-63
2023/04/23 09:42:07;;;;;;;15.07;10.07;;;21.20;98.20;;;;;;5076797;28;20109;-63
2023/04/23 09:44:34;;;;;;;13.98;9.25;;;20.60;99.00;;;;;;5091967;28;20094;-63
2023/04/23 09:47:08;;;;;;;12.98;10.07;;;20.50;99.30;;;;;;5076833;28;20651;-62
2023/04/23 09:49:46;;;;;;;14.00;9.27;;;20.10;99.30;;;;;;5092670;28;20059;-61
2023/04/23 09:52:13;;;;;;;15.50;10.15;;;19.40;99.90;;;;;;5094850;28;20123;-62
2023/04/23 09:54:45;;;;;;;11.75;8.95;;;19.30;99.90;;;;;;5093480;28;20438;-62
2023/04/23 09:57:12;;;;;;;11.65;8.60;;;19.50;99.90;;;;;;5094691;28;20488;-63
2023/04/23 09:59:39;;;;;;;12.23;8.52;;;19.30;99.90;;;;;;5075177;28;20109;-62
2023/04/23 10:02:07;;;;;;;14.48;7.93;;;19.30;99.90;;;;;;5094507;28;20048;-63
2023/04/23 10:04:35;;;;;;;12.70;8.27;;;19.10;99.90;;;;;;5091076;28;20044;-63
2023/04/23 10:07:03;;;;;;;13.18;8.70;;;18.90;99.90;;;;;;5093067;28;20491;-63
2023/04/23 10:09:31;;;;;;;12.60;7.47;;;19.20;99.90;;;;;;5090446;28;20051;-63
2023/04/23 10:12:01;;;;;;;15.25;8.25;;;19.70;99.90;;;;;;5092428;28;20457;-63
2023/04/23 10:14:28;;;;;;;;;;;19.60;99.90;;;;;;5072167;28;20062;-63
2023/04/23 10:16:58;;;;;;;12.15;7.10;;;19.10;99.90;;;;;;5071684;28;20514;-63
2023/04/23 10:19:27;;;;;;;12.35;6.75;;;18.80;99.90;;;;;;5075833;28;20131;-62
2023/04/23 10:21:59;;;;;;;13.75;5.88;;;18.60;99.90;;;;;;5073040;28;20044;-62
2023/04/23 10:24:29;;;;;;;11.38;6.50;;;18.50;99.90;;;;;;5092010;28;20087;-62
2023/04/23 10:27:01;;;;;;;11.52;6.65;;;18.40;99.90;;;;;;5075038;28;20127;-62
2023/04/23 10:29:29;;;;;;;11.73;6.75;;;18.20;99.90;;;;;;5094442;28;20124;-63
2023/04/23 10:31:58;;;;;;;10.95;6.10;;;18.40;99.90;;;;;;5092665;28;20450;-61
2023/04/23 10:34:25;;;;;;;11.48;5.78;;;19.60;99.90;;;;;;5075293;28;20097;-62
2023/04/23 10:36:53;;;;;;;11.40;5.72;;;20.50;99.90;;;;;;5093239;28;20453;-62
2023/04/23 10:39:21;;;;;;;8.95;5.38;;;21.20;99.90;;;;;;5093540;28;20439;-63
2023/04/23 10:41:49;;;;;;;7.57;4.75;;;22.20;99.10;;;;;;5093529;28;20180;-63
2023/04/23 10:44:17;;;;;;;10.90;4.68;;;22.90;97.10;;;;;;5094087;28;20044;-64
2023/04/23 10:46:55;;;;;;;10.95;5.30;;;23.10;96.20;;;;;;5075342;28;20108;-63
2023/04/23 10:49:23;;;;;;;8.82;4.30;;;23.10;95.60;;;;;;5074253;28;20052;-63
2023/04/23 10:51:59;;;;;;;7.60;3.72;;;23.10;94.90;;;;;;5091824;28;20499;-63
2023/04/23 10:54:30;;;;;;;9.52;4.22;;;23.40;93.50;;;;;;5091908;28;20040;-63
2023/04/23 10:57:00;;;;;;;9.32;4.30;;;23.80;94.20;;;;;;5075305;28;20150;-62
2023/04/23 10:59:32;;;;;;;7.10;3.67;;;24.20;93.60;;;;;;5090013;28;20055;-63
2023/04/23 11:02:06;;;;;;;6.18;3.72;;;24.10;92.20;;;;;;5093547;28;20380;-62
2023/04/23 11:04:34;;;;;;;9.13;3.60;;;24.30;92.90;;;;;;5092032;28;20051;-63
2023/04/23 11:07:06;;;;;;;5.72;3.22;;;24.70;92.50;;;;;;5092953;28;20048;-63
2023/04/23 11:09:44;;;;;;;6.53;3.67;;;24.70;91.60;;;;;;5072733;28;20044;-63
2023/04/23 11:12:13;;;;;;;7.32;3.22;;;25.30;91.30;;;;;;5075802;28;20052;-62
2023/04/23 11:14:47;;;;;;;6.17;2.90;;;25.00;91.00;;;;;;5091481;28;20097;-63
2023/04/23 11:17:15;;;;;;;11.15;3.03;;;24.90;90.40;;;;;;5093034;28;20043;-64
2023/04/23 11:20:09;;;;;;;5.80;2.95;;;24.70;90.00;;;;;;5090354;28;20755;-63
2023/04/23 11:22:36;;;;;;;5.05;2.72;;;23.90;91.00;;;;;;5090913;28;20507;-63
2023/04/23 11:25:05;;;;;;;5.43;2.50;;;23.70;91.40;;;;;;5092887;28;20450;-62
2023/04/23 11:27:32;;;;;;;5.63;2.40;;;23.60;91.40;;;;;;5089281;28;20052;-64
2023/04/23 11:30:00;;;;;;;5.68;2.22;;;23.20;91.10;;;;;;5072710;28;20561;-62
2023/04/23 11:32:28;;;;;;;8.10;2.40;;;23.10;91.80;;;;;;5088361;28;20454;-63
2023/04/23 11:34:56;;;;;;;7.13;2.72;;;22.70;91.00;;;;;;5092050;28;20051;-63
2023/04/23 11:37:24;;;;;;;4.88;2.40;;;21.90;91.70;;;;;;5091292;28;20051;-64
2023/04/23 11:39:51;;;;;;;6.25;2.63;;;21.30;92.30;;;;;;5075407;28;20403;-62
2023/04/23 11:42:19;;;;;;;7.72;2.80;;;21.00;92.90;;;;;;5072424;28;20044;-62
2023/04/23 11:44:47;;;;;;;4.22;1.88;;;21.00;93.50;;;;;;5092344;28;20122;-62
2023/04/23 11:47:17;;;;;;;5.40;1.88;;;20.90;92.00;;;;;;5071009;28;20127;-63
2023/04/23 11:49:45;;;;;;;6.82;2.35;;;21.20;92.00;;;;;;5091621;28;20079;-64
2023/04/23 11:52:12;;;;;;;5.43;2.45;;;21.40;92.60;;;;;;5072653;28;20113;-63
2023/04/23 11:54:41;;;;;;;4.30;2.33;;;21.30;92.70;;;;;;5091871;28;20055;-64
2023/04/23 11:57:08;;;;;;;8.73;2.83;;;21.40;92.20;;;;;;5069509;28;20492;-63
2023/04/23 11:59:35;;;;;;;9.75;2.38;;;21.10;92.70;;;;;;5091272;28;20056;-62
2023/04/23 12:02:02;;;;;;;5.18;2.50;;;21.00;92.30;;;;;;5092044;28;20047;-62
2023/04/23 12:04:31;;;;;;;6.07;2.17;;;20.80;91.80;;;;;;5090881;28;20044;-63
2023/04/23 12:06:59;;;;;;;5.03;2.20;;;20.40;92.90;;;;;;5092152;28;20056;-62
2023/04/23 12:09:28;;;;;;;7.10;2.40;;;20.50;93.10;;;;;;5069867;28;20058;-63
2023/04/23 12:11:57;;;;;;;5.13;1.83;;;21.00;93.40;;;;;;5092458;28;20051;-63
2023/04/23 12:14:28;;;;;;;5.57;1.95;;;22.00;92.20;;;;;;5088410;28;20048;-62
2023/04/23 12:16:56;;;;;;;4.65;1.77;;;22.70;90.80;;;;;;5073594;28;20055;-64
2023/04/23 12:19:28;;;;;;;5.93;2.20;;;23.00;90.90;;;;;;5090482;28;20435;-64
2023/04/23 12:21:58;;;;;;;6.85;2.47;;;23.50;89.50;;;;;;5070266;28;20044;-62
2023/04/23 12:24:26;;;;;;;5.25;2.08;;;23.90;89.10;;;;;;5090658;28;20053;-62
2023/04/23 12:26:55;;;;;;;5.03;1.60;;;24.20;86.40;;;;;;5074173;28;20052;-63
2023/04/23 12:29:23;;;;;;;3.88;1.60;;;23.80;85.90;;;;;;5090907;28;20101;-63
2023/04/23 12:31:51;;;;;;;7.90;3.05;;;24.10;86.20;;;;;;5073968;28;20055;-63
2023/04/23 12:34:20;;;;;;;6.03;2.00;;;23.60;87.10;;;;;;5089807;28;20483;-63
2023/04/23 12:36:48;;;;;;;5.25;2.00;;;23.60;86.80;;;;;;5073101;28;20074;-63